KPUC/PUC METAR and TAF weather

Enter ICAO airport designator
Station Type Date Time Source
KPUC METAR 2019/10/18 10:53 UTC NOAA

KPUC 181053Z AUTO 32013G19KT 10SM SCT120 07/M04 A2981 RMK AO2 SLP060 T00671039


Station Type Date Time Source
KPUC Decoded METAR 2019/10/18 10:53 UTC NOAA

PRICE CARBON COUNTY AIRPORT, UT, United States (KPUC) 39-37N 110-45W 2091M
Oct 18, 2019 - 06:53 AM EDT / 2019.10.18 1053 UTC
Wind: from the NW (320 degrees) at 15 MPH (13 KT) gusting to 22 MPH (19 KT):0
Visibility: 10 mile(s):0
Sky conditions: partly cloudy
Temperature: 44.1 F (6.7 C)
Dew Point: 25.0 F (-3.9 C)
Relative Humidity: 46%
Pressure (altimeter): 29.81 in. Hg (1009 hPa)
ob: KPUC 181053Z AUTO 32013G19KT 10SM SCT120 07/M04 A2981 RMK AO2 SLP060 T00671039
cycle: 11

Station Type Date Time Source
KPUC TAF UTC NOAA

Error!

Example: see airport list